Terminal Aerodrome Forecast
Issued by NWS

Home | Current Version | Previous Version | Text Only | Print | Product List | Glossary On
Versions: 1 2 3 4 5 6 7 8 9 10 11 12 13 14 15 16 17 18 19 20 21 22 23 24 25 26 27
273
FTUS44 KLIX 272320
TAFMCB
TAF
KMCB 272320Z 2800/2824 14009KT P6SM SKC
     FM280200 16006KT P6SM BKN200
     FM281200 16004KT P6SM BKN025
     FM281500 16007KT P6SM BKN040
     FM281800 17007KT P6SM SCT250=

USA.gov is the U.S. government's official web portal to all federal, state and local government web resources and services.